sensor_id;sensor_type;location;lat;lon;timestamp;pressure;altitude;pressure_sealevel;temperature;humidity
7918;BME280;4004;42.624;23.386;2023-12-28T00:01:51;95218.31;;;3.55;100.00
7918;BME280;4004;42.624;23.386;2023-12-28T00:04:18;95219.00;;;3.42;100.00
7918;BME280;4004;42.624;23.386;2023-12-28T00:06:47;95225.28;;;3.27;100.00
7918;BME280;4004;42.624;23.386;2023-12-28T00:09:13;95223.44;;;3.22;100.00
7918;BME280;4004;42.624;23.386;2023-12-28T00:11:39;95227.75;;;3.18;100.00
7918;BME280;4004;42.624;23.386;2023-12-28T00:14:06;95221.94;;;3.11;100.00
7918;BME280;4004;42.624;23.386;2023-12-28T00:16:33;95219.34;;;3.06;100.00
7918;BME280;4004;42.624;23.386;2023-12-28T00:19:02;95229.47;;;3.04;100.00
7918;BME280;4004;42.624;23.386;2023-12-28T00:21:29;95219.09;;;3.02;100.00
7918;BME280;4004;42.624;23.386;2023-12-28T00:23:58;95241.44;;;3.01;100.00
7918;BME280;4004;42.624;23.386;2023-12-28T00:26:25;95236.06;;;2.77;100.00
7918;BME280;4004;42.624;23.386;2023-12-28T00:28:52;95235.13;;;2.63;100.00
7918;BME280;4004;42.624;23.386;2023-12-28T00:31:19;95230.44;;;2.49;100.00
7918;BME280;4004;42.624;23.386;2023-12-28T00:33:46;95237.31;;;2.56;100.00
7918;BME280;4004;42.624;23.386;2023-12-28T00:36:12;95239.16;;;2.55;100.00
7918;BME280;4004;42.624;23.386;2023-12-28T00:38:39;95238.03;;;2.61;100.00
7918;BME280;4004;42.624;23.386;2023-12-28T00:41:08;95227.75;;;2.55;100.00
7918;BME280;4004;42.624;23.386;2023-12-28T00:43:34;95238.41;;;2.49;100.00
7918;BME280;4004;42.624;23.386;2023-12-28T00:46:02;95240.03;;;2.45;100.00
7918;BME280;4004;42.624;23.386;2023-12-28T00:48:29;95244.88;;;2.33;100.00
7918;BME280;4004;42.624;23.386;2023-12-28T00:50:55;95243.84;;;2.29;100.00
7918;BME280;4004;42.624;23.386;2023-12-28T00:53:25;95243.84;;;2.29;100.00
7918;BME280;4004;42.624;23.386;2023-12-28T00:55:51;95254.44;;;2.34;100.00
7918;BME280;4004;42.624;23.386;2023-12-28T00:58:20;95256.81;;;2.36;100.00
7918;BME280;4004;42.624;23.386;2023-12-28T01:00:47;95249.59;;;2.41;100.00
7918;BME280;4004;42.624;23.386;2023-12-28T01:03:13;95259.69;;;2.39;100.00
7918;BME280;4004;42.624;23.386;2023-12-28T01:05:40;95260.25;;;2.36;100.00
7918;BME280;4004;42.624;23.386;2023-12-28T01:08:07;95265.25;;;2.43;100.00
7918;BME280;4004;42.624;23.386;2023-12-28T01:10:34;95254.66;;;2.38;100.00
7918;BME280;4004;42.624;23.386;2023-12-28T01:13:01;95253.34;;;2.35;100.00
7918;BME280;4004;42.624;23.386;2023-12-28T01:15:29;95264.22;;;2.39;100.00
7918;BME280;4004;42.624;23.386;2023-12-28T01:17:56;95257.81;;;2.40;100.00
7918;BME280;4004;42.624;23.386;2023-12-28T01:20:23;95257.88;;;2.35;100.00
7918;BME280;4004;42.624;23.386;2023-12-28T01:22:51;95256.03;;;2.30;100.00
7918;BME280;4004;42.624;23.386;2023-12-28T01:25:18;95259.56;;;2.20;100.00
7918;BME280;4004;42.624;23.386;2023-12-28T01:27:44;95255.25;;;2.24;100.00
7918;BME280;4004;42.624;23.386;2023-12-28T01:30:11;95250.69;;;2.35;100.00
7918;BME280;4004;42.624;23.386;2023-12-28T01:32:40;95253.13;;;2.26;100.00
7918;BME280;4004;42.624;23.386;2023-12-28T01:35:07;95257.31;;;2.38;100.00
7918;BME280;4004;42.624;23.386;2023-12-28T01:37:34;95253.34;;;2.40;100.00
7918;BME280;4004;42.624;23.386;2023-12-28T01:40:01;95245.34;;;2.45;100.00
7918;BME280;4004;42.624;23.386;2023-12-28T01:42:28;95239.50;;;2.43;100.00
7918;BME280;4004;42.624;23.386;2023-12-28T01:44:56;95240.03;;;2.45;100.00
7918;BME280;4004;42.624;23.386;2023-12-28T01:47:23;95230.22;;;2.41;100.00
7918;BME280;4004;42.624;23.386;2023-12-28T01:49:52;95236.31;;;2.41;100.00
7918;BME280;4004;42.624;23.386;2023-12-28T01:52:19;95236.06;;;2.43;100.00
7918;BME280;4004;42.624;23.386;2023-12-28T01:54:47;95242.72;;;2.40;100.00
7918;BME280;4004;42.624;23.386;2023-12-28T01:57:14;95248.03;;;2.40;100.00
7918;BME280;4004;42.624;23.386;2023-12-28T01:59:42;95248.81;;;2.41;100.00
7918;BME280;4004;42.624;23.386;2023-12-28T02:02:09;95236.38;;;2.36;100.00
7918;BME280;4004;42.624;23.386;2023-12-28T02:04:37;95232.47;;;2.23;100.00
7918;BME280;4004;42.624;23.386;2023-12-28T02:07:05;95226.59;;;2.26;100.00
7918;BME280;4004;42.624;23.386;2023-12-28T02:09:33;95231.69;;;2.23;100.00
7918;BME280;4004;42.624;23.386;2023-12-28T02:12:00;95234.59;;;2.21;100.00
7918;BME280;4004;42.624;23.386;2023-12-28T02:14:28;95231.38;;;2.24;100.00
7918;BME280;4004;42.624;23.386;2023-12-28T02:17:00;95228.19;;;2.27;100.00
7918;BME280;4004;42.624;23.386;2023-12-28T02:19:40;95226.13;;;2.19;100.00
7918;BME280;4004;42.624;23.386;2023-12-28T02:22:13;95232.28;;;2.10;100.00
7918;BME280;4004;42.624;23.386;2023-12-28T02:25:12;95230.16;;;2.12;100.00
7918;BME280;4004;42.624;23.386;2023-12-28T02:27:40;95243.13;;;2.13;100.00
7918;BME280;4004;42.624;23.386;2023-12-28T02:30:09;95232.28;;;2.10;100.00
7918;BME280;4004;42.624;23.386;2023-12-28T02:32:42;95235.19;;;2.08;100.00
7918;BME280;4004;42.624;23.386;2023-12-28T02:35:18;95238.66;;;2.03;100.00
7918;BME280;4004;42.624;23.386;2023-12-28T02:37:50;95235.22;;;2.03;100.00
7918;BME280;4004;42.624;23.386;2023-12-28T02:40:19;95231.00;;;1.97;100.00
7918;BME280;4004;42.624;23.386;2023-12-28T02:42:46;95240.84;;;1.91;100.00
7918;BME280;4004;42.624;23.386;2023-12-28T02:45:13;95241.09;;;1.95;100.00
7918;BME280;4004;42.624;23.386;2023-12-28T02:47:40;95246.41;;;1.95;100.00
7918;BME280;4004;42.624;23.386;2023-12-28T02:50:07;95238.97;;;1.97;100.00
7918;BME280;4004;42.624;23.386;2023-12-28T02:52:34;95249.31;;;1.98;100.00
7918;BME280;4004;42.624;23.386;2023-12-28T02:55:01;95246.94;;;1.97;100.00
7918;BME280;4004;42.624;23.386;2023-12-28T02:57:30;95233.63;;;2.02;100.00
7918;BME280;4004;42.624;23.386;2023-12-28T02:59:57;95227.75;;;2.10;100.00
7918;BME280;4004;42.624;23.386;2023-12-28T03:02:27;95231.72;;;2.13;100.00
7918;BME280;4004;42.624;23.386;2023-12-28T03:04:54;95228.84;;;2.09;100.00
7918;BME280;4004;42.624;23.386;2023-12-28T03:07:21;95219.53;;;2.06;100.00
7918;BME280;4004;42.624;23.386;2023-12-28T03:09:48;95211.09;;;1.99;100.00
7918;BME280;4004;42.624;23.386;2023-12-28T03:12:15;95208.50;;;1.94;100.00
7918;BME280;4004;42.624;23.386;2023-12-28T03:14:44;95210.94;;;1.80;100.00
7918;BME280;4004;42.624;23.386;2023-12-28T03:17:11;95214.41;;;1.76;100.00
7918;BME280;4004;42.624;23.386;2023-12-28T03:19:38;95209.09;;;1.81;100.00
7918;BME280;4004;42.624;23.386;2023-12-28T03:22:05;95208.31;;;1.75;100.00
7918;BME280;4004;42.624;23.386;2023-12-28T03:24:32;95209.59;;;1.78;100.00
7918;BME280;4004;42.624;23.386;2023-12-28T03:26:59;95207.00;;;1.73;100.00
7918;BME280;4004;42.624;23.386;2023-12-28T03:29:27;95212.47;;;1.86;100.00
7918;BME280;4004;42.624;23.386;2023-12-28T03:31:55;95205.88;;;1.89;100.00
7918;BME280;4004;42.624;23.386;2023-12-28T03:34:22;95196.34;;;1.78;100.00
7918;BME280;4004;42.624;23.386;2023-12-28T03:36:51;95210.13;;;1.85;100.00
7918;BME280;4004;42.624;23.386;2023-12-28T03:39:18;95222.84;;;1.88;100.00
7918;BME280;4004;42.624;23.386;2023-12-28T03:41:45;95229.44;;;1.91;100.00
7918;BME280;4004;42.624;23.386;2023-12-28T03:44:13;95240.06;;;1.96;100.00
7918;BME280;4004;42.624;23.386;2023-12-28T03:46:40;95241.88;;;2.00;100.00
7918;BME280;4004;42.624;23.386;2023-12-28T03:49:08;95238.13;;;2.06;100.00
7918;BME280;4004;42.624;23.386;2023-12-28T03:51:35;95244.47;;;2.11;100.00
7918;BME280;4004;42.624;23.386;2023-12-28T03:54:02;95246.88;;;2.02;100.00
7918;BME280;4004;42.624;23.386;2023-12-28T03:56:29;95251.66;;;2.05;100.00
7918;BME280;4004;42.624;23.386;2023-12-28T03:58:58;95240.59;;;1.88;100.00
7918;BME280;4004;42.624;23.386;2023-12-28T04:01:25;95268.91;;;2.07;100.00
7918;BME280;4004;42.624;23.386;2023-12-28T04:03:52;95267.28;;;2.12;100.00
7918;BME280;4004;42.624;23.386;2023-12-28T04:06:20;95255.56;;;2.18;100.00
7918;BME280;4004;42.624;23.386;2023-12-28T04:08:47;95257.47;;;2.12;100.00
7918;BME280;4004;42.624;23.386;2023-12-28T04:11:14;95257.25;;;2.03;100.00
7918;BME280;4004;42.624;23.386;2023-12-28T04:13:41;95258.31;;;1.97;100.00
7918;BME280;4004;42.624;23.386;2023-12-28T04:16:12;95256.72;;;2.01;100.00
7918;BME280;4004;42.624;23.386;2023-12-28T04:18:39;95249.06;;;1.95;100.00
7918;BME280;4004;42.624;23.386;2023-12-28T04:21:08;95252.00;;;1.88;100.00
7918;BME280;4004;42.624;23.386;2023-12-28T04:23:37;95248.31;;;1.89;100.00
7918;BME280;4004;42.624;23.386;2023-12-28T04:26:05;95252.28;;;1.81;100.00
7918;BME280;4004;42.624;23.386;2023-12-28T04:28:31;95257.88;;;1.75;100.00
7918;BME280;4004;42.624;23.386;2023-12-28T04:31:02;95248.88;;;1.76;100.00
7918;BME280;4004;42.624;23.386;2023-12-28T04:33:29;95250.50;;;1.72;100.00
7918;BME280;4004;42.624;23.386;2023-12-28T04:35:56;95253.13;;;1.72;100.00
7918;BME280;4004;42.624;23.386;2023-12-28T04:38:23;95246.75;;;1.73;100.00
7918;BME280;4004;42.624;23.386;2023-12-28T04:40:51;95242.25;;;1.78;100.00
7918;BME280;4004;42.624;23.386;2023-12-28T04:43:18;95237.19;;;1.77;100.00
7918;BME280;4004;42.624;23.386;2023-12-28T04:45:45;95242.75;;;1.80;100.00
7918;BME280;4004;42.624;23.386;2023-12-28T04:48:12;95244.06;;;1.78;100.00
7918;BME280;4004;42.624;23.386;2023-12-28T04:50:39;95246.72;;;1.83;100.00
7918;BME280;4004;42.624;23.386;2023-12-28T04:53:06;95236.13;;;1.83;100.00
7918;BME280;4004;42.624;23.386;2023-12-28T04:55:33;95244.56;;;1.90;100.00
7918;BME280;4004;42.624;23.386;2023-12-28T04:58:01;95240.53;;;1.98;100.00
7918;BME280;4004;42.624;23.386;2023-12-28T05:00:28;95241.81;;;2.11;100.00
7918;BME280;4004;42.624;23.386;2023-12-28T05:02:55;95241.31;;;2.03;100.00
7918;BME280;4004;42.624;23.386;2023-12-28T05:05:22;95241.06;;;2.05;100.00
7918;BME280;4004;42.624;23.386;2023-12-28T05:07:49;95228.84;;;2.09;100.00
7918;BME280;4004;42.624;23.386;2023-12-28T05:10:15;95237.28;;;2.16;100.00
7918;BME280;4004;42.624;23.386;2023-12-28T05:12:42;95251.06;;;2.18;100.00
7918;BME280;4004;42.624;23.386;2023-12-28T05:15:11;95245.72;;;2.23;100.00
7918;BME280;4004;42.624;23.386;2023-12-28T05:17:38;95250.03;;;2.14;100.00
7918;BME280;4004;42.624;23.386;2023-12-28T05:20:06;95247.16;;;2.05;100.00
7918;BME280;4004;42.624;23.386;2023-12-28T05:22:34;95245.13;;;1.87;100.00
7918;BME280;4004;42.624;23.386;2023-12-28T05:25:01;95255.75;;;1.77;100.00
7918;BME280;4004;42.624;23.386;2023-12-28T05:27:28;95249.16;;;1.74;100.00
7918;BME280;4004;42.624;23.386;2023-12-28T05:29:55;95258.47;;;1.61;100.00
7918;BME280;4004;42.624;23.386;2023-12-28T05:32:23;95255.28;;;1.59;100.00
7918;BME280;4004;42.624;23.386;2023-12-28T05:34:50;95244.72;;;1.44;100.00
7918;BME280;4004;42.624;23.386;2023-12-28T05:37:17;95260.91;;;1.42;100.00
7918;BME280;4004;42.624;23.386;2023-12-28T05:39:44;95256.44;;;1.28;100.00
7918;BME280;4004;42.624;23.386;2023-12-28T05:42:11;95270.44;;;1.33;100.00
7918;BME280;4004;42.624;23.386;2023-12-28T05:44:38;95269.69;;;1.22;100.00
7918;BME280;4004;42.624;23.386;2023-12-28T05:47:05;95273.16;;;1.18;100.00
7918;BME280;4004;42.624;23.386;2023-12-28T05:49:33;95265.75;;;1.05;100.00
7918;BME280;4004;42.624;23.386;2023-12-28T05:52:00;95275.28;;;1.00;100.00
7918;BME280;4004;42.624;23.386;2023-12-28T05:54:27;95280.28;;;1.02;100.00
7918;BME280;4004;42.624;23.386;2023-12-28T05:56:53;95278.47;;;1.02;100.00
7918;BME280;4004;42.624;23.386;2023-12-28T05:59:20;95277.66;;;0.92;100.00
7918;BME280;4004;42.624;23.386;2023-12-28T06:01:48;95285.06;;;0.90;100.00
7918;BME280;4004;42.624;23.386;2023-12-28T06:04:15;95287.97;;;0.88;100.00
7918;BME280;4004;42.624;23.386;2023-12-28T06:06:43;95280.56;;;0.85;100.00
7918;BME280;4004;42.624;23.386;2023-12-28T06:09:09;95276.88;;;0.91;100.00
7918;BME280;4004;42.624;23.386;2023-12-28T06:11:37;95274.72;;;0.93;100.00
7918;BME280;4004;42.624;23.386;2023-12-28T06:14:04;95278.47;;;1.02;100.00
7918;BME280;4004;42.624;23.386;2023-12-28T06:16:30;95278.97;;;1.10;100.00
7918;BME280;4004;42.624;23.386;2023-12-28T06:18:59;95276.59;;;1.08;100.00
7918;BME280;4004;42.624;23.386;2023-12-28T06:21:26;95284.00;;;1.16;100.00
7918;BME280;4004;42.624;23.386;2023-12-28T06:23:55;95285.06;;;1.20;100.00
7918;BME280;4004;42.624;23.386;2023-12-28T06:26:22;95284.97;;;1.51;100.00
7918;BME280;4004;42.624;23.386;2023-12-28T06:28:49;95290.78;;;1.74;100.00
7918;BME280;4004;42.624;23.386;2023-12-28T06:31:16;95280.84;;;2.05;100.00
7918;BME280;4004;42.624;23.386;2023-12-28T06:33:42;95282.84;;;2.34;100.00
7918;BME280;4004;42.624;23.386;2023-12-28T06:36:11;95281.31;;;2.62;100.00
7918;BME280;4004;42.624;23.386;2023-12-28T06:38:38;95281.09;;;2.93;100.00
7918;BME280;4004;42.624;23.386;2023-12-28T06:41:11;95290.78;;;3.42;100.00
7918;BME280;4004;42.624;23.386;2023-12-28T06:43:39;95293.47;;;3.66;100.00
7918;BME280;4004;42.624;23.386;2023-12-28T06:46:06;95299.56;;;4.14;100.00
7918;BME280;4004;42.624;23.386;2023-12-28T06:48:33;95301.25;;;4.48;100.00
7918;BME280;4004;42.624;23.386;2023-12-28T06:51:00;95308.97;;;4.88;100.00
7918;BME280;4004;42.624;23.386;2023-12-28T06:53:27;95296.19;;;5.04;100.00
7918;BME280;4004;42.624;23.386;2023-12-28T06:55:54;95300.13;;;5.25;100.00
7918;BME280;4004;42.624;23.386;2023-12-28T06:58:22;95299.34;;;5.25;100.00
7918;BME280;4004;42.624;23.386;2023-12-28T07:00:49;95290.53;;;5.57;100.00
7918;BME280;4004;42.624;23.386;2023-12-28T07:03:16;95294.69;;;5.91;100.00
7918;BME280;4004;42.624;23.386;2023-12-28T07:05:43;95297.34;;;5.77;98.73
7918;BME280;4004;42.624;23.386;2023-12-28T07:08:10;95303.63;;;6.00;99.17
7918;BME280;4004;42.624;23.386;2023-12-28T07:10:37;95305.50;;;6.13;98.07
7918;BME280;4004;42.624;23.386;2023-12-28T07:13:04;95295.88;;;5.85;97.57
7918;BME280;4004;42.624;23.386;2023-12-28T07:15:33;95285.50;;;5.69;97.60
7918;BME280;4004;42.624;23.386;2023-12-28T07:17:59;95293.03;;;5.81;97.34
7918;BME280;4004;42.624;23.386;2023-12-28T07:20:26;95288.25;;;5.78;95.44
7918;BME280;4004;42.624;23.386;2023-12-28T07:22:53;95295.78;;;5.76;96.37
7918;BME280;4004;42.624;23.386;2023-12-28T07:25:20;95294.13;;;5.94;96.95
7918;BME280;4004;42.624;23.386;2023-12-28T07:27:47;95296.22;;;6.11;93.79
7918;BME280;4004;42.624;23.386;2023-12-28T07:30:14;95285.91;;;5.90;92.77
7918;BME280;4004;42.624;23.386;2023-12-28T07:32:44;95289.31;;;5.96;92.77
7918;BME280;4004;42.624;23.386;2023-12-28T07:35:11;95299.44;;;5.80;93.87
7918;BME280;4004;42.624;23.386;2023-12-28T07:37:38;95288.91;;;6.03;93.77
7918;BME280;4004;42.624;23.386;2023-12-28T07:40:06;95298.00;;;6.29;91.62
7918;BME280;4004;42.624;23.386;2023-12-28T07:42:33;95306.69;;;6.35;91.43
7918;BME280;4004;42.624;23.386;2023-12-28T07:45:01;95292.84;;;6.33;89.95
7918;BME280;4004;42.624;23.386;2023-12-28T07:47:26;95298.47;;;6.45;89.44
7918;BME280;4004;42.624;23.386;2023-12-28T07:49:55;95294.88;;;6.50;87.62
7918;BME280;4004;42.624;23.386;2023-12-28T07:52:22;95302.50;;;6.56;90.29
7918;BME280;4004;42.624;23.386;2023-12-28T07:54:49;95302.13;;;6.49;91.15
7918;BME280;4004;42.624;23.386;2023-12-28T07:57:16;95299.44;;;6.49;91.21
7918;BME280;4004;42.624;23.386;2023-12-28T07:59:43;95307.56;;;6.30;93.73
7918;BME280;4004;42.624;23.386;2023-12-28T08:02:10;95304.63;;;6.32;93.15
7918;BME280;4004;42.624;23.386;2023-12-28T08:04:37;95307.75;;;6.48;94.30
7918;BME280;4004;42.624;23.386;2023-12-28T08:07:05;95308.81;;;6.60;94.30
7918;BME280;4004;42.624;23.386;2023-12-28T08:09:34;95298.38;;;6.73;93.63
7918;BME280;4004;42.624;23.386;2023-12-28T08:12:01;95307.28;;;6.82;94.00
7918;BME280;4004;42.624;23.386;2023-12-28T08:14:28;95305.34;;;6.74;93.01
7918;BME280;4004;42.624;23.386;2023-12-28T08:16:55;95302.97;;;6.72;92.88
7918;BME280;4004;42.624;23.386;2023-12-28T08:19:22;95302.13;;;6.49;94.01
7918;BME280;4004;42.624;23.386;2023-12-28T08:21:49;95298.50;;;6.04;96.69
7918;BME280;4004;42.624;23.386;2023-12-28T08:24:17;95304.94;;;6.03;97.70
7918;BME280;4004;42.624;23.386;2023-12-28T08:26:44;95295.47;;;5.91;97.92
7918;BME280;4004;42.624;23.386;2023-12-28T08:29:11;95293.13;;;5.90;98.41
7918;BME280;4004;42.624;23.386;2023-12-28T08:31:38;95292.72;;;5.82;100.00
7918;BME280;4004;42.624;23.386;2023-12-28T08:34:06;95294.19;;;5.61;100.00
7918;BME280;4004;42.624;23.386;2023-12-28T08:36:33;95278.22;;;5.42;100.00
7918;BME280;4004;42.624;23.386;2023-12-28T08:39:00;95295.50;;;5.45;100.00
7918;BME280;4004;42.624;23.386;2023-12-28T08:41:28;95305.00;;;5.37;100.00
7918;BME280;4004;42.624;23.386;2023-12-28T08:43:55;95275.63;;;5.23;100.00
7918;BME280;4004;42.624;23.386;2023-12-28T08:46:22;95290.38;;;5.34;100.00
7918;BME280;4004;42.624;23.386;2023-12-28T08:48:50;95285.72;;;5.40;100.00
7918;BME280;4004;42.624;23.386;2023-12-28T08:51:17;95278.13;;;5.33;100.00
7918;BME280;4004;42.624;23.386;2023-12-28T08:53:44;95272.00;;;5.47;100.00
7918;BME280;4004;42.624;23.386;2023-12-28T08:56:16;95265.50;;;5.53;100.00
7918;BME280;4004;42.624;23.386;2023-12-28T08:58:45;95264.84;;;5.61;100.00
7918;BME280;4004;42.624;23.386;2023-12-28T09:01:17;95262.06;;;5.66;100.00
7918;BME280;4004;42.624;23.386;2023-12-28T09:03:44;95249.94;;;5.74;100.00
7918;BME280;4004;42.624;23.386;2023-12-28T09:06:11;95252.78;;;5.77;100.00
7918;BME280;4004;42.624;23.386;2023-12-28T09:08:41;95256.34;;;5.87;100.00
7918;BME280;4004;42.624;23.386;2023-12-28T09:11:09;95257.44;;;5.86;100.00
7918;BME280;4004;42.624;23.386;2023-12-28T09:13:37;95255.75;;;5.90;100.00
7918;BME280;4004;42.624;23.386;2023-12-28T09:16:05;95250.53;;;5.98;100.00
7918;BME280;4004;42.624;23.386;2023-12-28T09:18:33;95249.66;;;6.03;100.00
7918;BME280;4004;42.624;23.386;2023-12-28T09:21:02;95254.22;;;6.03;100.00
7918;BME280;4004;42.624;23.386;2023-12-28T09:23:28;95242.31;;;6.09;100.00
7918;BME280;4004;42.624;23.386;2023-12-28T09:25:56;95242.22;;;6.00;100.00
7918;BME280;4004;42.624;23.386;2023-12-28T09:28:24;95235.97;;;6.05;100.00
7918;BME280;4004;42.624;23.386;2023-12-28T09:30:51;95232.44;;;5.95;100.00
7918;BME280;4004;42.624;23.386;2023-12-28T09:33:19;95228.78;;;6.05;100.00
7918;BME280;4004;42.624;23.386;2023-12-28T09:35:46;95212.16;;;6.08;100.00
7918;BME280;4004;42.624;23.386;2023-12-28T09:38:13;95224.13;;;6.11;100.00
7918;BME280;4004;42.624;23.386;2023-12-28T09:40:41;95218.97;;;6.14;100.00
7918;BME280;4004;42.624;23.386;2023-12-28T09:43:13;95211.16;;;6.18;100.00
7918;BME280;4004;42.624;23.386;2023-12-28T09:45:40;95214.13;;;6.16;100.00
7918;BME280;4004;42.624;23.386;2023-12-28T09:48:07;95213.22;;;6.21;100.00
7918;BME280;4004;42.624;23.386;2023-12-28T09:50:35;95205.22;;;6.21;100.00
7918;BME280;4004;42.624;23.386;2023-12-28T09:53:02;95203.22;;;6.27;100.00
7918;BME280;4004;42.624;23.386;2023-12-28T09:55:29;95194.22;;;6.36;100.00
7918;BME280;4004;42.624;23.386;2023-12-28T09:57:57;95196.69;;;6.33;100.00
7918;BME280;4004;42.624;23.386;2023-12-28T10:00:24;95193.22;;;6.32;100.00
7918;BME280;4004;42.624;23.386;2023-12-28T10:02:51;95185.63;;;6.26;100.00
7918;BME280;4004;42.624;23.386;2023-12-28T10:05:18;95180.38;;;6.34;100.00
7918;BME280;4004;42.624;23.386;2023-12-28T10:07:47;95180.50;;;6.29;100.00
7918;BME280;4004;42.624;23.386;2023-12-28T10:10:14;95169.56;;;6.39;100.00
7918;BME280;4004;42.624;23.386;2023-12-28T10:12:42;95170.03;;;6.41;100.00
7918;BME280;4004;42.624;23.386;2023-12-28T10:15:09;95171.63;;;6.42;100.00
7918;BME280;4004;42.624;23.386;2023-12-28T10:17:36;95163.66;;;6.51;100.00
7918;BME280;4004;42.624;23.386;2023-12-28T10:20:03;95163.38;;;6.53;100.00
7918;BME280;4004;42.624;23.386;2023-12-28T10:22:34;95155.53;;;6.56;100.00
7918;BME280;4004;42.624;23.386;2023-12-28T10:25:03;95156.53;;;6.60;100.00
7918;BME280;4004;42.624;23.386;2023-12-28T10:27:31;95148.19;;;6.62;100.00
7918;BME280;4004;42.624;23.386;2023-12-28T10:29:58;95144.53;;;6.80;100.00
7918;BME280;4004;42.624;23.386;2023-12-28T10:32:25;95135.13;;;6.83;100.00
7918;BME280;4004;42.624;23.386;2023-12-28T10:34:52;95131.53;;;6.88;100.00
7918;BME280;4004;42.624;23.386;2023-12-28T10:37:20;95131.81;;;6.86;100.00
7918;BME280;4004;42.624;23.386;2023-12-28T10:39:48;95126.38;;;7.00;100.00
7918;BME280;4004;42.624;23.386;2023-12-28T10:42:27;95104.44;;;7.12;100.00
7918;BME280;4004;42.624;23.386;2023-12-28T10:45:02;95101.31;;;7.18;100.00
7918;BME280;4004;42.624;23.386;2023-12-28T10:47:32;95100.44;;;7.32;100.00
7918;BME280;4004;42.624;23.386;2023-12-28T10:50:02;95090.50;;;7.32;100.00
7918;BME280;4004;42.624;23.386;2023-12-28T10:52:31;95090.66;;;7.36;100.00
7918;BME280;4004;42.624;23.386;2023-12-28T10:55:20;95081.88;;;7.44;100.00
7918;BME280;4004;42.624;23.386;2023-12-28T10:57:59;95086.44;;;7.43;100.00
7918;BME280;4004;42.624;23.386;2023-12-28T11:00:31;95077.19;;;7.50;100.00
7918;BME280;4004;42.624;23.386;2023-12-28T11:03:03;95070.44;;;7.61;100.00
7918;BME280;4004;42.624;23.386;2023-12-28T11:05:31;95062.53;;;7.64;100.00
7918;BME280;4004;42.624;23.386;2023-12-28T11:07:59;95051.22;;;7.67;100.00
7918;BME280;4004;42.624;23.386;2023-12-28T11:10:27;95062.72;;;7.77;100.00
7918;BME280;4004;42.624;23.386;2023-12-28T11:12:57;95055.97;;;7.79;100.00
7918;BME280;4004;42.624;23.386;2023-12-28T11:15:26;95055.47;;;7.77;100.00
7918;BME280;4004;42.624;23.386;2023-12-28T11:17:53;95053.28;;;7.79;100.00
7918;BME280;4004;42.624;23.386;2023-12-28T11:20:20;95057.22;;;7.82;100.00
7918;BME280;4004;42.624;23.386;2023-12-28T11:22:47;95050.78;;;7.92;100.00
7918;BME280;4004;42.624;23.386;2023-12-28T11:25:15;95035.50;;;8.01;100.00
7918;BME280;4004;42.624;23.386;2023-12-28T11:27:44;95030.63;;;8.03;100.00
7918;BME280;4004;42.624;23.386;2023-12-28T11:30:13;95027.47;;;8.01;100.00
7918;BME280;4004;42.624;23.386;2023-12-28T11:32:41;95032.34;;;8.07;100.00
7918;BME280;4004;42.624;23.386;2023-12-28T11:35:11;95028.53;;;8.08;100.00
7918;BME280;4004;42.624;23.386;2023-12-28T11:37:41;95027.94;;;8.12;100.00
7918;BME280;4004;42.624;23.386;2023-12-28T11:40:13;95022.72;;;8.15;100.00
7918;BME280;4004;42.624;23.386;2023-12-28T11:42:51;95022.53;;;8.20;100.00
7918;BME280;4004;42.624;23.386;2023-12-28T11:45:21;95013.38;;;8.39;100.00
7918;BME280;4004;42.624;23.386;2023-12-28T11:47:58;95011.31;;;8.36;100.00
7918;BME280;4004;42.624;23.386;2023-12-28T11:50:25;94985.34;;;8.27;100.00
7918;BME280;4004;42.624;23.386;2023-12-28T11:52:52;95012.75;;;8.42;100.00
7918;BME280;4004;42.624;23.386;2023-12-28T11:55:21;95007.06;;;8.52;99.96
7918;BME280;4004;42.624;23.386;2023-12-28T11:57:49;95007.38;;;8.50;99.87
7918;BME280;4004;42.624;23.386;2023-12-28T12:00:16;95007.38;;;8.59;100.00
7918;BME280;4004;42.624;23.386;2023-12-28T12:02:45;94991.78;;;8.53;100.00
7918;BME280;4004;42.624;23.386;2023-12-28T12:05:12;94990.81;;;8.57;100.00
7918;BME280;4004;42.624;23.386;2023-12-28T12:07:38;94982.31;;;8.55;100.00
7918;BME280;4004;42.624;23.386;2023-12-28T12:10:06;94983.88;;;8.65;100.00
7918;BME280;4004;42.624;23.386;2023-12-28T12:12:34;94967.81;;;8.56;99.07
7918;BME280;4004;42.624;23.386;2023-12-28T12:15:01;94972.03;;;8.66;98.95
7918;BME280;4004;42.624;23.386;2023-12-28T12:17:28;94978.13;;;8.75;97.93
7918;BME280;4004;42.624;23.386;2023-12-28T12:19:56;94983.47;;;8.84;97.52
7918;BME280;4004;42.624;23.386;2023-12-28T12:25:09;94969.50;;;8.69;98.95
7918;BME280;4004;42.624;23.386;2023-12-28T12:27:36;94954.31;;;8.74;97.10
7918;BME280;4004;42.624;23.386;2023-12-28T12:30:04;94961.53;;;8.82;97.22
7918;BME280;4004;42.624;23.386;2023-12-28T12:32:31;94970.31;;;8.91;96.46
7918;BME280;4004;42.624;23.386;2023-12-28T12:35:00;94979.19;;;8.91;96.45
7918;BME280;4004;42.624;23.386;2023-12-28T12:37:27;94972.69;;;8.92;96.13
7918;BME280;4004;42.624;23.386;2023-12-28T12:39:55;94975.84;;;8.95;95.57
7918;BME280;4004;42.624;23.386;2023-12-28T12:42:22;94977.41;;;8.96;95.98
7918;BME280;4004;42.624;23.386;2023-12-28T12:44:49;94972.88;;;8.87;96.34
7918;BME280;4004;42.624;23.386;2023-12-28T12:47:16;94972.28;;;9.11;95.14
7918;BME280;4004;42.624;23.386;2023-12-28T12:49:43;94979.72;;;9.06;95.39
7918;BME280;4004;42.624;23.386;2023-12-28T12:52:12;94974.50;;;9.09;95.31
7918;BME280;4004;42.624;23.386;2023-12-28T12:54:39;94975.88;;;9.16;95.26
7918;BME280;4004;42.624;23.386;2023-12-28T12:57:06;94976.81;;;9.20;95.02
7918;BME280;4004;42.624;23.386;2023-12-28T12:59:33;94972.41;;;9.15;94.87
7918;BME280;4004;42.624;23.386;2023-12-28T13:02:00;94975.59;;;9.08;95.07
7918;BME280;4004;42.624;23.386;2023-12-28T13:04:27;94971.78;;;9.18;94.89
7918;BME280;4004;42.624;23.386;2023-12-28T13:06:54;94969.81;;;9.27;93.59
7918;BME280;4004;42.624;23.386;2023-12-28T13:09:22;94968.97;;;9.36;92.74
7918;BME280;4004;42.624;23.386;2023-12-28T13:11:49;94963.47;;;9.32;92.82
7918;BME280;4004;42.624;23.386;2023-12-28T13:14:17;94960.00;;;9.31;92.33
7918;BME280;4004;42.624;23.386;2023-12-28T13:16:44;94962.03;;;9.34;92.23
7918;BME280;4004;42.624;23.386;2023-12-28T13:19:13;94958.31;;;9.48;90.73